createdAt,value
2022-11-09T00:01:04.875Z,100.00
2022-11-09T00:03:33.490Z,100.00
2022-11-09T00:06:01.327Z,98.96
2022-11-09T00:08:29.407Z,98.15
2022-11-09T00:11:05.969Z,97.98
2022-11-09T00:13:37.830Z,97.74
2022-11-09T00:16:06.904Z,97.42
2022-11-09T00:18:35.910Z,97.67
2022-11-09T00:21:07.550Z,98.15
2022-11-09T00:23:36.958Z,98.15
2022-11-09T00:26:06.691Z,99.08
2022-11-09T00:28:34.675Z,99.25
2022-11-09T00:31:08.238Z,99.12
2022-11-09T00:33:36.524Z,99.71
2022-11-09T00:36:08.043Z,99.15
2022-11-09T00:38:36.886Z,99.14
2022-11-09T00:41:07.587Z,99.52
2022-11-09T00:43:35.185Z,99.69
2022-11-09T00:46:03.214Z,99.67
2022-11-09T00:48:31.211Z,99.84
2022-11-09T00:50:59.476Z,99.77
2022-11-09T00:53:27.886Z,99.93
2022-11-09T00:55:55.439Z,100.00
2022-11-09T00:58:24.728Z,100.00
2022-11-09T01:00:53.898Z,100.00
2022-11-09T01:03:22.229Z,100.00
2022-11-09T01:05:50.278Z,100.00
2022-11-09T01:08:19.068Z,100.00
2022-11-09T01:10:48.952Z,100.00
2022-11-09T01:13:19.208Z,100.00
2022-11-09T01:15:53.065Z,100.00
2022-11-09T01:18:21.957Z,100.00
2022-11-09T01:20:50.639Z,100.00
2022-11-09T01:23:20.770Z,100.00
2022-11-09T01:25:49.091Z,100.00
2022-11-09T01:28:17.046Z,100.00
2022-11-09T01:30:44.580Z,100.00
2022-11-09T01:33:12.346Z,100.00
2022-11-09T01:35:41.093Z,100.00
2022-11-09T01:38:10.056Z,100.00
2022-11-09T01:40:40.134Z,100.00
2022-11-09T01:43:29.810Z,100.00
2022-11-09T01:46:56.184Z,100.00
2022-11-09T01:49:50.272Z,100.00
2022-11-09T01:52:25.750Z,100.00
2022-11-09T01:55:03.210Z,100.00
2022-11-09T01:57:38.541Z,100.00
2022-11-09T02:00:12.708Z,100.00
2022-11-09T02:02:48.314Z,100.00
2022-11-09T02:05:22.126Z,100.00
2022-11-09T02:07:53.135Z,100.00
2022-11-09T02:10:37.943Z,100.00
2022-11-09T02:13:07.820Z,100.00
2022-11-09T02:15:45.460Z,100.00
2022-11-09T02:18:13.953Z,100.00
2022-11-09T02:20:51.120Z,100.00
2022-11-09T02:23:20.358Z,100.00
2022-11-09T02:26:00.185Z,100.00
2022-11-09T02:28:29.005Z,100.00
2022-11-09T02:30:57.778Z,100.00
2022-11-09T02:33:26.388Z,100.00
2022-11-09T02:35:55.225Z,100.00
2022-11-09T02:38:23.245Z,100.00
2022-11-09T02:40:52.244Z,100.00
2022-11-09T02:43:20.468Z,100.00
2022-11-09T02:45:48.936Z,100.00
2022-11-09T02:48:16.912Z,100.00
2022-11-09T02:50:44.470Z,100.00
2022-11-09T02:53:11.981Z,100.00
2022-11-09T02:55:43.493Z,100.00
2022-11-09T02:58:11.298Z,100.00
2022-11-09T03:00:40.884Z,100.00
2022-11-09T03:03:09.356Z,100.00
2022-11-09T03:05:37.901Z,100.00
2022-11-09T03:08:06.581Z,100.00
2022-11-09T03:10:36.499Z,100.00
2022-11-09T03:13:04.223Z,100.00
2022-11-09T03:15:31.765Z,100.00
2022-11-09T03:18:00.075Z,100.00
2022-11-09T03:20:27.601Z,100.00
2022-11-09T03:22:59.430Z,100.00
2022-11-09T03:25:28.729Z,100.00
2022-11-09T03:28:05.183Z,100.00
2022-11-09T03:30:33.561Z,100.00
2022-11-09T03:33:03.677Z,100.00
2022-11-09T03:35:32.278Z,100.00
2022-11-09T03:38:00.798Z,100.00
2022-11-09T03:40:28.919Z,100.00
2022-11-09T03:42:57.774Z,100.00
2022-11-09T03:45:27.912Z,100.00
2022-11-09T03:48:00.528Z,100.00
2022-11-09T03:50:31.737Z,99.82
2022-11-09T03:53:00.791Z,99.42
2022-11-09T03:55:29.020Z,99.25
2022-11-09T03:57:56.516Z,99.11
2022-11-09T04:00:24.355Z,99.82
2022-11-09T04:02:52.283Z,100.00
2022-11-09T04:05:20.263Z,99.43
2022-11-09T04:07:50.060Z,99.95
2022-11-09T04:10:19.065Z,100.00
2022-11-09T04:12:46.808Z,100.00
2022-11-09T04:15:15.085Z,100.00
2022-11-09T04:17:44.803Z,100.00
2022-11-09T04:20:12.581Z,100.00
2022-11-09T04:22:40.504Z,100.00
2022-11-09T04:25:08.246Z,100.00
2022-11-09T04:27:36.194Z,100.00
2022-11-09T04:30:04.052Z,100.00
2022-11-09T04:32:31.712Z,100.00
2022-11-09T04:34:59.455Z,100.00
2022-11-09T04:37:27.067Z,100.00
2022-11-09T04:39:54.954Z,100.00
2022-11-09T04:42:23.043Z,100.00
2022-11-09T04:44:50.971Z,100.00
2022-11-09T04:47:18.994Z,100.00
2022-11-09T04:49:46.923Z,100.00
2022-11-09T04:52:14.904Z,100.00
2022-11-09T04:54:42.397Z,100.00
2022-11-09T04:57:09.911Z,100.00
2022-11-09T04:59:37.505Z,100.00
2022-11-09T05:02:05.030Z,100.00
2022-11-09T05:04:32.544Z,100.00
2022-11-09T05:07:00.127Z,100.00
2022-11-09T05:09:27.667Z,100.00
2022-11-09T05:11:55.238Z,100.00
2022-11-09T05:14:22.705Z,100.00
2022-11-09T05:16:50.206Z,100.00
2022-11-09T05:19:17.743Z,100.00
2022-11-09T05:21:45.255Z,100.00
2022-11-09T05:24:12.904Z,100.00
2022-11-09T05:26:42.441Z,100.00
2022-11-09T05:29:12.058Z,100.00
2022-11-09T05:31:40.283Z,100.00
2022-11-09T05:34:12.882Z,100.00
2022-11-09T05:36:40.895Z,100.00
2022-11-09T05:39:08.619Z,100.00
2022-11-09T05:41:36.718Z,100.00
2022-11-09T05:44:04.326Z,100.00
2022-11-09T05:46:33.478Z,100.00
2022-11-09T05:49:00.977Z,100.00
2022-11-09T05:51:28.941Z,100.00
2022-11-09T05:53:56.922Z,100.00
2022-11-09T05:56:25.013Z,100.00
2022-11-09T05:58:52.464Z,100.00
2022-11-09T06:01:20.159Z,100.00
2022-11-09T06:03:48.239Z,100.00
2022-11-09T06:06:16.776Z,100.00
2022-11-09T06:08:44.663Z,100.00
2022-11-09T06:11:17.007Z,100.00
2022-11-09T06:13:45.807Z,100.00
2022-11-09T06:16:13.701Z,100.00
2022-11-09T06:18:41.614Z,100.00
2022-11-09T06:21:10.223Z,100.00
2022-11-09T06:23:37.828Z,100.00
2022-11-09T06:26:07.768Z,100.00
2022-11-09T06:28:37.606Z,100.00
2022-11-09T06:31:07.863Z,100.00
2022-11-09T06:33:36.304Z,100.00
2022-11-09T06:36:05.203Z,100.00
2022-11-09T06:38:33.169Z,100.00
2022-11-09T06:41:01.845Z,100.00
2022-11-09T06:43:29.980Z,100.00
2022-11-09T06:45:58.389Z,100.00
2022-11-09T06:48:26.031Z,100.00
2022-11-09T06:50:54.043Z,100.00
2022-11-09T06:53:21.845Z,100.00
2022-11-09T06:55:51.033Z,100.00
2022-11-09T06:58:19.903Z,100.00
2022-11-09T07:00:47.568Z,100.00
2022-11-09T07:03:16.789Z,100.00
2022-11-09T07:05:45.028Z,100.00
2022-11-09T07:08:14.552Z,100.00
2022-11-09T07:10:42.639Z,100.00
2022-11-09T07:13:10.549Z,100.00
2022-11-09T07:15:39.137Z,100.00
2022-11-09T07:18:08.687Z,100.00
2022-11-09T07:20:37.729Z,100.00
2022-11-09T07:23:05.345Z,100.00
2022-11-09T07:25:33.704Z,100.00
2022-11-09T07:28:05.862Z,100.00
2022-11-09T07:30:33.926Z,100.00
2022-11-09T07:33:09.332Z,100.00
2022-11-09T07:35:38.907Z,100.00
2022-11-09T07:38:07.010Z,100.00
2022-11-09T07:40:35.086Z,100.00
2022-11-09T07:43:05.215Z,100.00
2022-11-09T07:45:35.478Z,100.00
2022-11-09T07:48:07.926Z,100.00
2022-11-09T07:50:36.863Z,100.00
2022-11-09T07:53:07.216Z,100.00
2022-11-09T07:55:36.013Z,100.00
2022-11-09T07:58:09.426Z,100.00
2022-11-09T08:00:38.883Z,100.00
2022-11-09T08:03:07.537Z,100.00
2022-11-09T08:05:35.547Z,100.00
2022-11-09T08:08:07.397Z,100.00
2022-11-09T08:10:37.117Z,100.00
2022-11-09T08:13:08.406Z,100.00
2022-11-09T08:15:38.437Z,100.00
2022-11-09T08:18:13.740Z,100.00
2022-11-09T08:20:41.959Z,100.00
2022-11-09T08:23:18.503Z,100.00
2022-11-09T08:25:46.480Z,100.00
2022-11-09T08:28:16.358Z,100.00
2022-11-09T08:30:45.641Z,100.00
2022-11-09T08:33:13.967Z,100.00
2022-11-09T08:35:41.986Z,100.00
2022-11-09T08:38:09.913Z,100.00
2022-11-09T08:40:37.488Z,100.00
2022-11-09T08:43:07.406Z,100.00
2022-11-09T08:45:38.850Z,100.00
2022-11-09T08:48:08.289Z,100.00
2022-11-09T08:50:37.032Z,100.00
2022-11-09T08:53:05.880Z,100.00
2022-11-09T08:55:34.840Z,100.00
2022-11-09T08:58:03.724Z,100.00
2022-11-09T09:00:31.484Z,100.00
2022-11-09T09:02:59.229Z,100.00
2022-11-09T09:05:27.273Z,100.00
2022-11-09T09:07:54.825Z,100.00
2022-11-09T09:10:22.483Z,100.00
2022-11-09T09:12:50.494Z,100.00
2022-11-09T09:15:18.655Z,100.00
2022-11-09T09:17:47.194Z,100.00
2022-11-09T09:20:17.429Z,100.00
2022-11-09T09:22:45.107Z,100.00
2022-11-09T09:25:12.928Z,100.00
2022-11-09T09:27:40.935Z,100.00
2022-11-09T09:30:09.003Z,100.00
2022-11-09T09:32:37.243Z,100.00
2022-11-09T09:35:05.219Z,100.00
2022-11-09T09:37:32.703Z,100.00
2022-11-09T09:40:00.713Z,100.00
2022-11-09T09:42:36.278Z,100.00
2022-11-09T09:45:10.024Z,100.00
2022-11-09T09:47:54.882Z,100.00
2022-11-09T09:50:30.653Z,100.00
2022-11-09T09:53:24.711Z,100.00
2022-11-09T09:56:04.067Z,100.00
2022-11-09T09:58:34.255Z,100.00
2022-11-09T10:01:35.090Z,100.00
2022-11-09T10:04:03.616Z,100.00
2022-11-09T10:06:40.742Z,100.00
2022-11-09T10:09:32.887Z,100.00
2022-11-09T10:12:05.521Z,100.00
2022-11-09T10:15:06.663Z,100.00
2022-11-09T10:17:43.795Z,100.00
2022-11-09T10:20:30.343Z,100.00
2022-11-09T10:23:19.517Z,100.00
2022-11-09T10:26:12.911Z,100.00
2022-11-09T10:29:13.792Z,100.00
2022-11-09T10:31:35.080Z,100.00
2022-11-09T10:34:16.034Z,100.00
2022-11-09T10:36:59.055Z,100.00
2022-11-09T10:39:29.821Z,100.00
2022-11-09T10:42:15.755Z,100.00
2022-11-09T10:45:12.992Z,100.00
2022-11-09T10:48:00.539Z,100.00
2022-11-09T10:50:50.023Z,100.00
2022-11-09T10:53:36.050Z,100.00
2022-11-09T10:56:22.307Z,100.00
2022-11-09T10:59:29.563Z,100.00
2022-11-09T11:02:42.996Z,100.00
2022-11-09T11:05:30.748Z,100.00
2022-11-09T11:08:32.346Z,100.00
2022-11-09T11:11:39.083Z,100.00
2022-11-09T11:14:30.889Z,100.00
2022-11-09T11:17:37.136Z,100.00
2022-11-09T11:20:25.576Z,100.00
2022-11-09T11:23:24.495Z,100.00
2022-11-09T11:26:23.293Z,100.00
2022-11-09T11:29:39.213Z,99.20
2022-11-09T11:32:25.644Z,97.46
2022-11-09T11:35:19.070Z,95.96
2022-11-09T11:38:11.315Z,96.95
2022-11-09T11:41:15.903Z,100.00
2022-11-09T11:44:27.498Z,100.00
2022-11-09T11:47:34.058Z,100.00
2022-11-09T11:50:36.237Z,100.00
2022-11-09T11:53:35.633Z,100.00
2022-11-09T11:56:32.389Z,100.00
2022-11-09T11:59:24.595Z,100.00
2022-11-09T12:02:32.589Z,100.00
2022-11-09T12:05:57.798Z,100.00
2022-11-09T12:08:44.745Z,100.00
2022-11-09T12:11:55.630Z,100.00
2022-11-09T12:15:03.988Z,100.00
2022-11-09T12:18:05.536Z,100.00
2022-11-09T12:21:15.834Z,100.00
2022-11-09T12:24:50.219Z,100.00
2022-11-09T12:27:36.550Z,100.00
2022-11-09T12:30:26.470Z,100.00
2022-11-09T12:33:33.486Z,100.00
2022-11-09T12:36:27.265Z,100.00
2022-11-09T12:39:26.056Z,100.00
2022-11-09T12:42:26.979Z,100.00
2022-11-09T12:45:12.677Z,100.00
2022-11-09T12:48:04.749Z,100.00
2022-11-09T12:50:53.072Z,100.00
2022-11-09T12:53:39.767Z,100.00
2022-11-09T12:56:40.767Z,100.00
2022-11-09T12:59:26.786Z,100.00
2022-11-09T13:02:30.250Z,100.00
2022-11-09T13:05:32.348Z,100.00
2022-11-09T13:08:24.514Z,100.00
2022-11-09T13:11:25.991Z,100.00
2022-11-09T13:14:30.222Z,100.00
2022-11-09T13:17:28.644Z,100.00
2022-11-09T13:24:03.613Z,100.00
2022-11-09T13:26:50.978Z,100.00
2022-11-09T13:29:39.656Z,100.00
2022-11-09T13:32:28.334Z,100.00
2022-11-09T13:35:42.295Z,100.00
2022-11-09T13:38:33.687Z,100.00
2022-11-09T13:41:34.659Z,100.00
2022-11-09T13:44:27.080Z,100.00
2022-11-09T13:47:49.900Z,100.00
2022-11-09T13:50:36.322Z,100.00
2022-11-09T13:53:38.018Z,100.00
2022-11-09T13:56:30.007Z,100.00
2022-11-09T13:59:25.092Z,100.00
2022-11-09T14:02:25.670Z,100.00
2022-11-09T14:05:44.548Z,100.00
2022-11-09T14:08:40.442Z,100.00
2022-11-09T14:11:51.239Z,100.00
2022-11-09T14:14:59.952Z,100.00
2022-11-09T14:17:46.826Z,100.00
2022-11-09T14:20:46.506Z,100.00
2022-11-09T14:23:33.809Z,100.00
2022-11-09T14:26:26.208Z,100.00
2022-11-09T14:29:25.078Z,100.00
2022-11-09T14:32:36.769Z,100.00
2022-11-09T14:35:27.538Z,100.00
2022-11-09T14:38:21.885Z,100.00
2022-11-09T14:41:28.196Z,100.00
2022-11-09T14:44:35.846Z,100.00
2022-11-09T14:47:30.736Z,100.00
2022-11-09T14:50:27.568Z,100.00
2022-11-09T14:53:22.757Z,100.00
2022-11-09T14:56:12.325Z,100.00
2022-11-09T14:58:58.992Z,100.00
2022-11-09T15:02:03.005Z,100.00
2022-11-09T15:04:53.774Z,100.00
2022-11-09T15:07:40.385Z,100.00
2022-11-09T15:10:29.701Z,100.00
2022-11-09T15:13:16.168Z,100.00
2022-11-09T15:16:03.050Z,100.00
2022-11-09T15:18:50.065Z,100.00
2022-11-09T15:21:38.458Z,100.00
2022-11-09T15:24:26.841Z,100.00
2022-11-09T15:27:33.822Z,100.00
2022-11-09T15:30:45.812Z,100.00
2022-11-09T15:33:35.998Z,100.00
2022-11-09T15:36:24.550Z,100.00
2022-11-09T15:39:19.360Z,100.00
2022-11-09T15:42:06.506Z,100.00
2022-11-09T15:44:57.798Z,100.00
2022-11-09T15:48:10.412Z,100.00
2022-11-09T15:50:57.205Z,100.00
2022-11-09T15:53:43.848Z,100.00
2022-11-09T15:56:30.696Z,100.00
2022-11-09T15:59:23.848Z,100.00
2022-11-09T16:02:12.098Z,100.00
2022-11-09T16:04:58.169Z,100.00
2022-11-09T16:07:52.777Z,100.00
2022-11-09T16:10:39.980Z,100.00
2022-11-09T16:13:25.869Z,100.00
2022-11-09T16:16:15.565Z,100.00
2022-11-09T16:19:01.960Z,100.00
2022-11-09T16:21:48.285Z,100.00
2022-11-09T16:24:37.423Z,100.00
2022-11-09T16:27:51.828Z,100.00
2022-11-09T16:30:31.127Z,100.00
2022-11-09T16:33:17.686Z,100.00
2022-11-09T16:36:06.703Z,100.00
2022-11-09T16:38:54.637Z,100.00
2022-11-09T16:41:42.865Z,100.00
2022-11-09T16:44:34.288Z,100.00
2022-11-09T16:47:21.971Z,100.00
2022-11-09T16:50:09.196Z,100.00
2022-11-09T16:52:55.654Z,100.00
2022-11-09T16:55:42.401Z,100.00
2022-11-09T16:58:29.902Z,100.00
2022-11-09T17:01:19.254Z,100.00
2022-11-09T17:04:08.741Z,100.00
2022-11-09T17:06:55.060Z,100.00
2022-11-09T17:09:41.105Z,100.00
2022-11-09T17:12:26.933Z,100.00
2022-11-09T17:15:13.214Z,100.00
2022-11-09T17:17:59.398Z,100.00
2022-11-09T17:20:50.468Z,100.00
2022-11-09T17:23:37.286Z,100.00
2022-11-09T17:26:25.813Z,100.00
2022-11-09T17:29:12.769Z,100.00
2022-11-09T17:31:58.861Z,100.00
2022-11-09T17:34:44.861Z,100.00
2022-11-09T17:37:33.743Z,100.00
2022-11-09T17:40:21.401Z,100.00
2022-11-09T17:43:07.977Z,100.00
2022-11-09T17:45:54.175Z,100.00
2022-11-09T17:48:42.775Z,100.00
2022-11-09T17:51:30.252Z,100.00
2022-11-09T17:54:16.778Z,100.00
2022-11-09T17:57:04.221Z,100.00
2022-11-09T17:59:50.051Z,100.00
2022-11-09T18:02:36.824Z,100.00
2022-11-09T18:05:23.048Z,100.00
2022-11-09T18:08:11.308Z,100.00
2022-11-09T18:10:59.282Z,100.00
2022-11-09T18:13:45.391Z,100.00
2022-11-09T18:16:32.045Z,100.00
2022-11-09T18:19:18.290Z,100.00
2022-11-09T18:22:07.565Z,100.00
2022-11-09T18:24:57.844Z,100.00
2022-11-09T18:27:44.672Z,100.00
2022-11-09T18:30:31.978Z,100.00
2022-11-09T18:33:18.833Z,100.00
2022-11-09T18:36:11.636Z,100.00
2022-11-09T18:38:58.114Z,100.00
2022-11-09T18:41:44.632Z,100.00
2022-11-09T18:44:30.831Z,100.00
2022-11-09T18:47:16.870Z,100.00
2022-11-09T18:50:03.645Z,100.00
2022-11-09T18:52:49.677Z,100.00
2022-11-09T18:55:35.900Z,100.00
2022-11-09T18:58:23.309Z,100.00
2022-11-09T19:01:09.891Z,100.00
2022-11-09T19:03:59.759Z,100.00
2022-11-09T19:06:47.148Z,100.00
2022-11-09T19:09:38.540Z,100.00
2022-11-09T19:12:25.748Z,100.00
2022-11-09T19:15:11.668Z,100.00
2022-11-09T19:18:02.729Z,100.00
2022-11-09T19:20:49.432Z,100.00
2022-11-09T19:23:35.470Z,100.00
2022-11-09T19:26:22.509Z,100.00
2022-11-09T19:29:11.416Z,100.00
2022-11-09T19:31:57.752Z,100.00
2022-11-09T19:34:43.747Z,100.00
2022-11-09T19:37:30.519Z,100.00
2022-11-09T19:40:16.983Z,100.00
2022-11-09T19:43:03.562Z,100.00
2022-11-09T19:45:49.905Z,100.00
2022-11-09T19:48:36.067Z,100.00
2022-11-09T19:51:23.287Z,100.00
2022-11-09T19:54:11.883Z,100.00
2022-11-09T19:56:57.884Z,100.00
2022-11-09T19:59:43.955Z,100.00
2022-11-09T20:02:31.204Z,100.00
2022-11-09T20:05:17.591Z,100.00
2022-11-09T20:08:05.170Z,100.00
2022-11-09T20:10:52.375Z,100.00
2022-11-09T20:13:40.730Z,100.00
2022-11-09T20:16:27.233Z,100.00
2022-11-09T20:19:14.639Z,100.00
2022-11-09T20:22:00.991Z,100.00
2022-11-09T20:24:47.328Z,100.00
2022-11-09T20:27:33.807Z,100.00
2022-11-09T20:30:20.890Z,100.00
2022-11-09T20:33:07.395Z,100.00
2022-11-09T20:35:56.895Z,100.00
2022-11-09T20:38:44.668Z,100.00
2022-11-09T20:41:32.783Z,100.00
2022-11-09T20:44:18.820Z,100.00
2022-11-09T20:47:05.242Z,100.00
2022-11-09T20:49:51.972Z,100.00
2022-11-09T20:52:39.060Z,100.00
2022-11-09T20:55:25.658Z,100.00
2022-11-09T20:58:13.446Z,100.00
2022-11-09T21:01:01.572Z,100.00
2022-11-09T21:03:49.799Z,100.00
2022-11-09T21:06:36.556Z,100.00
2022-11-09T21:09:22.907Z,100.00
2022-11-09T21:12:21.315Z,100.00
2022-11-09T21:15:08.822Z,100.00
2022-11-09T21:17:55.085Z,100.00
2022-11-09T21:20:41.868Z,100.00
2022-11-09T21:23:28.435Z,100.00
2022-11-09T21:26:34.173Z,100.00
2022-11-09T21:29:42.094Z,100.00
2022-11-09T21:32:30.674Z,100.00
2022-11-09T21:35:18.993Z,100.00
2022-11-09T21:38:05.666Z,100.00
2022-11-09T21:40:52.330Z,100.00
2022-11-09T21:43:38.505Z,100.00
2022-11-09T21:46:25.274Z,100.00
2022-11-09T21:49:13.673Z,100.00
2022-11-09T21:52:00.112Z,100.00
2022-11-09T21:54:46.415Z,100.00
2022-11-09T21:57:32.442Z,100.00
2022-11-09T22:00:18.895Z,100.00
2022-11-09T22:03:04.685Z,100.00
2022-11-09T22:05:51.323Z,100.00
2022-11-09T22:08:37.630Z,100.00
2022-11-09T22:11:46.084Z,100.00
2022-11-09T22:14:51.538Z,100.00
2022-11-09T22:17:38.283Z,100.00
2022-11-09T22:20:42.940Z,100.00
2022-11-09T22:23:28.910Z,100.00
2022-11-09T22:26:16.423Z,100.00
2022-11-09T22:29:03.683Z,100.00
2022-11-09T22:31:50.016Z,100.00
2022-11-09T22:34:36.822Z,100.00
2022-11-09T22:37:23.386Z,100.00
2022-11-09T22:40:10.634Z,100.00
2022-11-09T22:42:57.318Z,100.00
2022-11-09T22:45:44.024Z,100.00
2022-11-09T22:48:34.321Z,100.00
2022-11-09T22:51:21.030Z,100.00
2022-11-09T22:54:07.518Z,100.00
2022-11-09T22:56:56.693Z,100.00
2022-11-09T22:59:42.874Z,100.00
2022-11-09T23:02:29.061Z,100.00
2022-11-09T23:05:16.029Z,100.00
2022-11-09T23:08:01.934Z,100.00
2022-11-09T23:10:55.426Z,100.00
2022-11-09T23:13:42.356Z,100.00
2022-11-09T23:16:28.850Z,100.00
2022-11-09T23:19:15.574Z,100.00
2022-11-09T23:22:02.344Z,100.00
2022-11-09T23:25:07.618Z,100.00
2022-11-09T23:27:54.680Z,100.00
2022-11-09T23:30:41.082Z,100.00
2022-11-09T23:33:28.458Z,100.00
2022-11-09T23:36:14.554Z,100.00
2022-11-09T23:39:00.878Z,100.00
2022-11-09T23:41:46.987Z,100.00
2022-11-09T23:44:33.280Z,100.00
2022-11-09T23:47:19.253Z,100.00
2022-11-09T23:50:06.408Z,100.00
2022-11-09T23:52:55.602Z,100.00
2022-11-09T23:55:42.358Z,100.00
2022-11-09T23:58:28.746Z,100.00
